Weather reports worldwide

Advertisment
Grazalema, Spain (8455): temperature & dewpoint: 08.11.2018 13:00:00 - 14.11.2018 13:00:00 (CET)Grazalema, Spain (8455): wind speed & gusts: 08.11.2018 13:00:00 - 14.11.2018 13:00:00 (CET)Grazalema, Spain (8455): wind direction: 08.11.2018 13:00:00 - 14.11.2018 13:00:00 (CET)Grazalema, Spain (8455): precipitation: 08.11.2018 13:00:00 - 14.11.2018 13:00:00 (CET)
Date & Time tt [°C] td [°C] ff [km/h] ff [kn] fx [km/h] fx [kn] dd rr [mm]
14.11.2018 13:00:00 - - - - - - - -
14.11.2018 12:00:00 13,9 9,9 7 4 19 10 ENE 0,0
14.11.2018 11:00:00 13,5 9,7 6 4 15 8 NE 0,0
14.11.2018 10:00:00 13,1 9,3 6 4 17 9 ENE 0,0
14.11.2018 09:00:00 13,0 9,8 4 2 15 8 NE 0,0
14.11.2018 08:00:00 12,5 9,3 5 3 16 9 ENE 0,1
14.11.2018 07:00:00 12,6 9,6 6 3 19 11 ENE -
14.11.2018 06:00:00 12,4 9,4 5 3 14 7 ENE 0,0
14.11.2018 05:00:00 11,9 8,9 4 2 28 15 NE 0,1
14.11.2018 04:00:00 12,5 7,8 11 6 23 12 E 0,0
14.11.2018 03:00:00 12,2 7,3 2 1 14 8 E 0,0
14.11.2018 02:00:00 12,0 7,1 3 1 19 10 E 0,0
14.11.2018 01:00:00 12,6 7,4 9 5 21 11 ENE -
14.11.2018 00:00:00 13,0 7,8 9 5 20 11 ENE 0,0
13.11.2018 23:00:00 13,0 7,7 6 4 19 10 ENE 0,0
13.11.2018 22:00:00 13,5 7,7 10 6 22 12 E 0,0
13.11.2018 21:00:00 13,3 8,0 7 4 27 14 E 0,0
13.11.2018 20:00:00 13,4 7,8 7 4 25 13 ENE 0,0
13.11.2018 19:00:00 13,5 7,4 6 3 26 14 E -
13.11.2018 18:00:00 13,8 7,8 5 3 14 8 SE 0,0
13.11.2018 17:00:00 14,5 7,3 8 4 16 9 E 0,0
13.11.2018 16:00:00 15,5 6,7 4 2 15 8 NE 0,0
13.11.2018 15:00:00 16,1 7,8 6 3 21 11 E 0,0
13.11.2018 14:00:00 16,5 8,3 11 6 20 11 ENE 0,0
13.11.2018 13:00:00 16,2 8,1 3 2 14 8 E -
13.11.2018 12:00:00 15,1 8,1 5 3 12 7 ENE 0,0
13.11.2018 11:00:00 13,9 7,7 2 1 6 3 SW 0,0
13.11.2018 10:00:00 12,5 7,8 3 2 21 11 W 0,0
13.11.2018 09:00:00 12,1 7,6 7 4 18 10 W 0,0
13.11.2018 08:00:00 9,9 8,7 5 3 10 6 W 0,0
13.11.2018 07:00:00 9,6 9,0 5 3 10 6 W -
13.11.2018 06:00:00 9,3 8,7 5 3 8 5 W 0,0
13.11.2018 05:00:00 8,5 7,8 5 3 9 5 W 0,0
13.11.2018 04:00:00 9,1 8,5 4 2 7 4 W 0,0
13.11.2018 03:00:00 9,7 9,0 1 1 8 4 SSW 0,0
13.11.2018 02:00:00 10,1 9,4 0 0 4 2 S 0,0
13.11.2018 01:00:00 10,1 9,4 2 1 7 4 S -
13.11.2018 00:00:00 10,3 9,7 1 1 6 3 S 0,0
12.11.2018 23:00:00 10,5 9,9 1 0 6 3 W 0,0
12.11.2018 22:00:00 10,5 9,9 0 0 5 3 ENE 0,0
12.11.2018 21:00:00 10,6 9,7 2 1 4 2 WNW 0,0
12.11.2018 20:00:00 10,5 9,0 6 3 9 5 WNW 0,0
12.11.2018 19:00:00 10,9 8,8 3 2 9 5 WNW -
12.11.2018 18:00:00 12,3 8,9 3 1 6 3 W 0,0
12.11.2018 17:00:00 13,4 9,0 0 0 6 4 WSW 0,0
12.11.2018 16:00:00 13,4 9,0 3 1 11 6 E 0,1
12.11.2018 15:00:00 13,6 9,0 0 0 7 4 NNE 0,1
12.11.2018 14:00:00 12,8 9,9 0 0 5 3 SSE 0,0
12.11.2018 13:00:00 12,3 8,8 0 0 7 4 SSE -
12.11.2018 12:00:00 12,5 8,9 4 2 10 5 ENE 0,0
12.11.2018 11:00:00 11,5 9,6 4 2 20 11 SSE 0,0
12.11.2018 10:00:00 11,2 7,7 5 3 24 13 SW 0,0
12.11.2018 09:00:00 10,7 6,2 7 4 24 13 WSW 0,0
12.11.2018 08:00:00 12,4 6,2 2 1 22 12 NE 0,0
12.11.2018 07:00:00 12,0 7,6 6 4 16 9 W -
12.11.2018 06:00:00 10,7 8,4 8 4 16 9 W 0,0
12.11.2018 05:00:00 10,1 7,8 4 2 14 8 W 0,0
12.11.2018 04:00:00 9,5 6,4 5 3 14 8 W 0,0
12.11.2018 03:00:00 9,8 5,5 7 4 25 14 W 0,0
12.11.2018 02:00:00 11,0 7,8 8 4 24 13 W 0,0
12.11.2018 01:00:00 11,6 7,6 8 5 22 12 W -
12.11.2018 00:00:00 11,8 7,3 7 4 17 9 W 0,0
11.11.2018 23:00:00 12,2 6,4 8 4 18 10 W 0,0
11.11.2018 22:00:00 12,8 5,6 8 4 21 12 W 0,0
11.11.2018 21:00:00 13,4 5,6 6 3 22 12 WSW 0,0
11.11.2018 20:00:00 13,8 5,0 7 4 21 11 W 0,0
11.11.2018 19:00:00 14,2 3,6 8 4 17 9 W -
11.11.2018 18:00:00 13,8 8,7 5 3 17 9 W 0,0
11.11.2018 17:00:00 15,0 6,8 6 3 21 12 WSW 0,0
11.11.2018 16:00:00 16,1 7,0 7 4 21 12 SW 0,0
11.11.2018 15:00:00 17,8 8,4 6 4 18 10 WSW 0,0
11.11.2018 14:00:00 18,1 8,4 7 4 18 10 W 0,0
11.11.2018 13:00:00 17,4 11,4 2 1 15 8 W -
11.11.2018 12:00:00 15,0 11,6 3 2 8 4 E 0,0
11.11.2018 11:00:00 12,5 11,9 2 1 7 4 E 0,0
11.11.2018 10:00:00 12,0 11,3 3 1 6 3 E 0,0
11.11.2018 09:00:00 11,4 10,8 0 0 3 2 N 0,0
11.11.2018 08:00:00 11,2 10,5 0 0 2 1 N 0,0
11.11.2018 07:00:00 11,1 10,5 1 1 4 2 SSE -
11.11.2018 06:00:00 11,1 10,5 1 1 5 3 SSE 0,0
11.11.2018 05:00:00 10,7 10,0 2 1 4 2 E 0,0
11.11.2018 04:00:00 10,7 9,8 0 0 3 2 E 0,0
11.11.2018 03:00:00 10,8 9,9 0 0 11 6 E 0,0
11.11.2018 02:00:00 11,1 10,2 3 2 14 7 W 0,0
11.11.2018 01:00:00 10,9 9,9 4 2 12 7 W -
11.11.2018 00:00:00 10,8 9,9 5 3 14 8 W 0,0
10.11.2018 23:00:00 10,8 9,9 5 3 13 7 WNW 0,0
10.11.2018 22:00:00 10,7 9,8 3 2 14 7 W 0,0
10.11.2018 21:00:00 10,4 9,4 4 2 12 6 W 0,0
10.11.2018 20:00:00 10,9 9,9 5 3 13 7 W 0,0
10.11.2018 19:00:00 11,4 10,2 5 3 16 9 W -
10.11.2018 18:00:00 11,4 9,4 5 3 18 10 W 0,0
10.11.2018 17:00:00 11,8 9,2 5 3 17 9 W 0,0
10.11.2018 16:00:00 12,0 8,5 5 3 19 10 WSW 0,0
10.11.2018 15:00:00 12,2 9,4 6 3 19 10 W 0,0
10.11.2018 14:00:00 12,9 9,3 5 3 22 12 WSW 0,0
10.11.2018 13:00:00 12,5 8,8 6 4 19 10 W -
10.11.2018 12:00:00 13,1 8,5 6 3 15 8 W 0,0
10.11.2018 11:00:00 10,9 8,5 6 4 13 7 W 0,0
10.11.2018 10:00:00 10,5 8,4 5 3 15 8 WNW 0,0
10.11.2018 09:00:00 9,6 8,4 2 1 10 5 W 0,0
10.11.2018 08:00:00 8,9 7,7 4 2 16 9 W 0,0
10.11.2018 07:00:00 8,3 7,1 3 2 11 6 W -
10.11.2018 06:00:00 7,4 5,9 5 3 13 7 W 0,0
10.11.2018 05:00:00 6,9 5,0 5 3 8 5 W 0,0
10.11.2018 04:00:00 6,6 4,8 6 3 9 5 W 0,0
10.11.2018 03:00:00 7,2 4,8 3 1 8 4 WSW 0,0
10.11.2018 02:00:00 6,5 3,9 4 2 7 4 W 0,0
10.11.2018 01:00:00 7,7 4,3 1 0 9 5 SW -
10.11.2018 00:00:00 8,4 4,5 0 0 13 7 WNW 0,0
09.11.2018 23:00:00 8,8 4,5 4 2 12 7 SSW 0,0
09.11.2018 22:00:00 8,8 4,8 4 2 21 11 W 0,0
09.11.2018 21:00:00 8,6 4,6 3 2 14 7 WSW 0,0
09.11.2018 20:00:00 8,4 5,3 5 3 17 9 WSW 0,0
09.11.2018 19:00:00 8,2 5,1 6 3 16 9 W -
09.11.2018 18:00:00 8,5 4,5 6 3 23 12 W 0,0
09.11.2018 17:00:00 8,9 3,6 9 5 23 12 W 0,0
09.11.2018 16:00:00 9,7 3,2 6 4 17 9 W 0,0
09.11.2018 15:00:00 11,2 2,3 7 4 32 17 W 0,0
09.11.2018 14:00:00 10,7 1,7 10 5 26 14 WNW 0,0
09.11.2018 13:00:00 10,6 1,7 8 4 28 15 WNW -
09.11.2018 12:00:00 10,0 1,3 9 5 24 13 WNW 0,0
09.11.2018 11:00:00 9,8 2,5 2 1 15 8 S 0,0
09.11.2018 10:00:00 9,3 2,1 3 2 16 9 NNW 0,0
09.11.2018 09:00:00 8,4 3,2 2 1 13 7 ENE 0,0
09.11.2018 08:00:00 5,7 1,7 3 2 16 9 WNW 0,0
09.11.2018 07:00:00 6,2 2,3 5 3 29 16 WSW -
09.11.2018 06:00:00 6,4 1,3 9 5 30 16 WNW 0,0
09.11.2018 05:00:00 6,3 1,9 6 3 26 14 WNW 0,0
09.11.2018 04:00:00 6,5 1,5 8 5 22 12 WNW 0,0
09.11.2018 03:00:00 6,5 1,7 3 2 18 10 WNW 0,0
09.11.2018 02:00:00 7,3 2,5 8 4 24 13 WNW 0,0
09.11.2018 01:00:00 7,8 2,3 9 5 32 17 W -
09.11.2018 00:00:00 8,0 4,8 9 5 29 16 W 0,3
08.11.2018 23:00:00 9,5 8,4 10 5 31 17 W 5,0
08.11.2018 22:00:00 10,1 9,0 9 5 26 14 W 3,3
08.11.2018 21:00:00 10,4 9,3 5 3 27 14 W 0,1
08.11.2018 20:00:00 10,2 9,3 6 3 28 15 WSW 0,0
08.11.2018 19:00:00 10,4 9,4 6 3 25 14 WSW -
08.11.2018 18:00:00 10,1 9,2 5 3 24 13 WSW 1,3
08.11.2018 17:00:00 10,3 9,4 5 3 29 15 W 6,4
08.11.2018 16:00:00 10,8 9,7 8 5 22 12 WSW 3,5
08.11.2018 15:00:00 11,3 9,6 6 3 23 12 WSW 0,8
08.11.2018 14:00:00 12,7 10,0 8 4 26 14 W 0,0
08.11.2018 13:00:00 12,9 9,9 4 2 27 14 WSW -

tt = temperature
td = dewpoint
ff = wind speed
fx = gusts
dd = wind direction
rr = precipitation

Next stations